Time;durP1;ratioP1;P1;durP2;ratioP2;P2;SDS_P1;SDS_P2;PMS_P1;PMS_P2;Temp;Humidity;BMP_temperature;BMP_pressure;BME280_temperature;BME280_humidity;BME280_pressure;Samples;Min_cycle;Max_cycle;Signal;HPM_P1;HPM_P2
2023/08/03 00:01:47;;;;;;;13.15;11.85;;;;;;;19.62;100.00;94479.69;5019696;28;20490;-86
2023/08/03 00:04:13;;;;;;;12.85;11.90;;;;;;;19.78;100.00;94472.84;5021274;28;20399;-85
2023/08/03 00:06:38;;;;;;;13.93;12.93;;;;;;;19.83;100.00;94465.88;5002282;28;20096;-86
2023/08/03 00:09:04;;;;;;;12.95;12.05;;;;;;;19.82;100.00;94452.94;5020131;28;20063;-86
2023/08/03 00:11:29;;;;;;;13.60;12.57;;;;;;;19.59;100.00;94453.09;5003635;28;20483;-86
2023/08/03 00:13:55;;;;;;;12.20;11.45;;;;;;;19.49;100.00;94481.84;5020544;28;20029;-88
2023/08/03 00:16:20;;;;;;;13.05;12.02;;;;;;;19.34;100.00;94500.72;5020422;28;20033;-86
2023/08/03 00:18:46;;;;;;;14.50;11.20;;;;;;;19.49;100.00;94500.25;5019116;28;20129;-85
2023/08/03 00:21:11;;;;;;;12.70;11.80;;;;;;;19.54;100.00;94495.06;5019570;28;20021;-85
2023/08/03 00:23:36;;;;;;;13.90;12.05;;;;;;;19.58;100.00;94478.59;5002325;28;20044;-85
2023/08/03 00:26:02;;;;;;;12.73;11.93;;;;;;;19.66;100.00;94472.94;5019447;28;20033;-86
2023/08/03 00:28:27;;;;;;;13.40;12.40;;;;;;;19.65;100.00;94473.19;5014081;28;20034;-85
2023/08/03 00:30:53;;;;;;;12.75;11.75;;;;;;;19.62;100.00;94492.06;5011409;28;20664;-84
2023/08/03 00:33:18;;;;;;;13.80;12.75;;;;;;;19.61;100.00;94487.84;5013017;28;20095;-86
2023/08/03 00:35:44;;;;;;;13.90;12.68;;;;;;;19.71;100.00;94482.75;5003318;28;20025;-85
2023/08/03 00:38:09;;;;;;;13.10;12.07;;;;;;;19.72;100.00;94481.69;5020775;28;20112;-85
2023/08/03 00:40:35;;;;;;;12.82;11.73;;;;;;;19.66;100.00;94477.41;5020600;28;20061;-85
2023/08/03 00:43:04;;;;;;;13.10;12.05;;;;;;;19.71;100.00;94477.50;5021015;28;20199;-85
2023/08/03 00:45:29;;;;;;;12.52;11.55;;;;;;;19.34;100.00;94488.41;5020782;28;20108;-87
2023/08/03 00:47:55;;;;;;;14.68;13.07;;;;;;;19.25;100.00;94531.84;5003426;28;20037;-87
2023/08/03 00:50:20;;;;;;;13.35;12.30;;;;;;;19.53;100.00;94501.34;5022528;28;20109;-86
2023/08/03 00:52:47;;;;;;;14.88;13.52;;;;;;;19.46;100.00;94506.75;5024720;28;20052;-86
2023/08/03 00:55:13;;;;;;;14.68;13.38;;;;;;;19.47;100.00;94508.34;5023578;28;20040;-85
2023/08/03 00:57:38;;;;;;;14.43;13.38;;;;;;;19.50;100.00;94522.84;5006419;28;20030;-86
2023/08/03 01:00:05;;;;;;;14.38;13.32;;;;;;;19.45;100.00;94519.13;5023686;28;20025;-86
2023/08/03 01:02:32;;;;;;;14.50;13.50;;;;;;;19.42;100.00;94516.16;5013463;28;20104;-85
2023/08/03 01:04:58;;;;;;;14.95;13.60;;;;;;;19.39;100.00;94517.38;5023465;28;20481;-86
2023/08/03 01:07:23;;;;;;;14.15;12.93;;;;;;;19.24;100.00;94534.69;5005875;28;20156;-87
2023/08/03 01:09:49;;;;;;;15.02;13.55;;;;;;;19.00;100.00;94538.44;5007208;28;20124;-88
2023/08/03 01:12:16;;;;;;;15.52;14.40;;;;;;;18.91;100.00;94545.88;5022556;28;20128;-88
2023/08/03 01:14:42;;;;;;;13.77;12.68;;;;;;;19.11;100.00;94572.50;5002319;28;20026;-87
2023/08/03 01:17:08;;;;;;;14.68;13.48;;;;;;;19.22;100.00;94563.03;5006654;28;20664;-86
2023/08/03 01:19:33;;;;;;;15.63;14.27;;;;;;;18.93;100.00;94551.69;5006258;28;20139;-86
2023/08/03 01:22:00;;;;;;;14.75;13.75;;;;;;;19.05;100.00;94589.19;5007094;28;20120;-86
2023/08/03 01:24:26;;;;;;;16.05;14.38;;;;;;;19.08;100.00;94586.09;5005982;28;20044;-86
2023/08/03 01:26:53;;;;;;;15.77;14.57;;;;;;;19.12;100.00;94583.81;5024593;28;20037;-86
2023/08/03 01:29:18;;;;;;;15.43;14.27;;;;;;;18.93;100.00;94580.56;5021365;28;20025;-87
2023/08/03 01:31:44;;;;;;;15.30;14.20;;;;;;;18.93;100.00;94596.31;5011417;28;20025;-89
2023/08/03 01:34:13;;;;;;;13.48;12.48;;;;;;;19.00;100.00;94607.47;5023713;28;20125;-89
2023/08/03 01:36:38;;;;;;;15.05;13.95;;;;;;;19.10;100.00;94596.41;5023788;28;20029;-88
2023/08/03 01:39:08;;;;;;;16.85;15.63;;;;;;;18.94;100.00;94593.44;5023752;28;20082;-87
2023/08/03 01:41:35;;;;;;;14.88;13.77;;;;;;;18.82;100.00;94615.47;5025430;28;20120;-89
2023/08/03 01:44:23;;;;;;;17.67;16.10;;;;;;;18.60;100.00;94643.31;5008390;28;20136;-90
2023/08/03 01:46:49;;;;;;;16.85;15.35;;;;;;;18.67;100.00;94652.69;5008267;28;20049;-88
2023/08/03 01:49:15;;;;;;;15.40;14.20;;;;;;;18.76;100.00;94637.38;5023550;28;20043;-88
2023/08/03 01:51:41;;;;;;;16.05;14.95;;;;;;;18.73;100.00;94619.47;5012889;28;20037;-87
2023/08/03 01:54:08;;;;;;;15.93;14.65;;;;;;;18.87;100.00;94626.09;5019539;28;20048;-86
2023/08/03 01:56:34;;;;;;;15.40;13.93;;;;;;;18.85;100.00;94621.06;5015073;28;20468;-85
2023/08/03 01:58:59;;;;;;;15.50;14.18;;;;;;;18.95;100.00;94604.72;4998247;28;20038;-87
2023/08/03 02:01:25;;;;;;;15.10;13.95;;;;;;;18.87;100.00;94594.59;5024190;28;20454;-90
2023/08/03 02:03:50;;;;;;;15.30;14.20;;;;;;;18.84;100.00;94584.56;5014912;28;20062;-88
2023/08/03 02:06:15;;;;;;;18.33;16.15;;;;;;;18.61;100.00;94616.06;5019522;28;20499;-90
2023/08/03 02:08:41;;;;;;;19.80;17.02;;;;;;;18.53;100.00;94647.88;5016299;28;20037;-90
2023/08/03 02:11:06;;;;;;;24.05;15.68;;;;;;;18.59;100.00;94652.25;5024586;28;20033;-88
2023/08/03 02:13:33;;;;;;;18.90;15.77;;;;;;;18.53;100.00;94646.06;5023427;28;20064;-87
2023/08/03 02:16:01;;;;;;;18.48;15.45;;;;;;;18.51;100.00;94661.22;5019916;28;20029;-87
2023/08/03 02:18:29;;;;;;;17.42;15.82;;;;;;;18.42;100.00;94652.88;5012227;28;20037;-87
2023/08/03 02:20:55;;;;;;;17.90;14.93;;;;;;;18.42;100.00;94673.06;4993182;28;20038;-90
2023/08/03 02:23:21;;;;;;;17.40;15.48;;;;;;;18.43;100.00;94664.13;5024049;28;20108;-88
2023/08/03 02:25:46;;;;;;;16.42;14.85;;;;;;;18.42;100.00;94665.97;5010487;28;20037;-89
2023/08/03 02:28:12;;;;;;;16.63;15.15;;;;;;;18.42;100.00;94670.44;5004027;28;20053;-88
2023/08/03 02:30:39;;;;;;;16.63;14.95;;;;;;;18.35;100.00;94674.97;5022325;28;20160;-90
2023/08/03 02:33:06;;;;;;;18.60;16.60;;;;;;;18.26;100.00;94685.00;5011779;28;20403;-88
2023/08/03 02:35:34;;;;;;;17.75;15.98;;;;;;;18.48;100.00;94684.44;5008135;28;20022;-87
2023/08/03 02:37:59;;;;;;;17.58;15.68;;;;;;;18.38;100.00;94677.94;5024153;28;20030;-87
2023/08/03 02:40:24;;;;;;;17.17;15.68;;;;;;;18.42;100.00;94673.84;5023157;28;20168;-88
2023/08/03 02:42:50;;;;;;;18.30;16.30;;;;;;;18.37;100.00;94680.78;5022497;28;20087;-87
2023/08/03 02:45:15;;;;;;;17.80;16.00;;;;;;;18.48;100.00;94679.22;5023639;28;20034;-87
2023/08/03 02:47:41;;;;;;;17.30;15.98;;;;;;;18.37;100.00;94681.59;5021586;28;20041;-87
2023/08/03 02:50:07;;;;;;;16.15;14.93;;;;;;;18.22;100.00;94667.31;5022798;28;20751;-89
2023/08/03 02:52:32;;;;;;;17.95;16.50;;;;;;;18.30;100.00;94693.22;5005471;28;20407;-86
2023/08/03 02:54:57;;;;;;;18.52;16.90;;;;;;;18.27;100.00;94698.88;5013055;28;20033;-89
2023/08/03 02:57:23;;;;;;;17.95;16.45;;;;;;;18.26;100.00;94690.25;5023615;28;20132;-92
2023/08/03 02:59:48;;;;;;;19.27;17.30;;;;;;;18.20;100.00;94712.13;5022664;28;20771;-88
2023/08/03 03:02:14;;;;;;;18.48;16.83;;;;;;;18.38;100.00;94704.16;5006771;28;20044;-87
2023/08/03 03:04:39;;;;;;;17.73;16.27;;;;;;;18.30;100.00;94720.22;5002474;28;20026;-88
2023/08/03 03:07:05;;;;;;;19.27;17.58;;;;;;;18.50;100.00;94713.91;5022625;28;20049;-87
2023/08/03 03:09:31;;;;;;;19.38;17.35;;;;;;;18.39;100.00;94703.16;5023194;28;20073;-88
2023/08/03 03:11:56;;;;;;;17.52;16.13;;;;;;;18.51;100.00;94705.03;5022016;28;20072;-88
2023/08/03 03:14:23;;;;;;;18.02;16.52;;;;;;;18.37;100.00;94699.13;5005550;28;20040;-90
2023/08/03 03:16:49;;;;;;;18.30;16.85;;;;;;;18.38;100.00;94717.28;5002188;28;20034;-88
2023/08/03 03:19:14;;;;;;;18.17;16.65;;;;;;;18.31;100.00;94721.81;5000755;28;20021;-89
2023/08/03 03:21:40;;;;;;;17.67;16.20;;;;;;;18.24;100.00;94731.59;5002494;28;20049;-89
2023/08/03 03:24:05;;;;;;;18.23;16.60;;;;;;;18.33;100.00;94726.84;4986648;28;20037;-89
2023/08/03 03:26:31;;;;;;;15.77;14.38;;;;;;;18.43;100.00;94714.78;5017455;28;20026;-88
2023/08/03 03:28:56;;;;;;;17.98;16.50;;;;;;;18.51;100.00;94702.41;5004366;28;20018;-88
2023/08/03 03:31:21;;;;;;;18.85;17.10;;;;;;;18.52;100.00;94699.56;5020082;28;20022;-88
2023/08/03 03:33:47;;;;;;;18.35;16.38;;;;;;;18.52;100.00;94714.50;5022060;28;20617;-87
2023/08/03 03:36:12;;;;;;;19.42;17.77;;;;;;;18.53;100.00;94711.63;5023298;28;20041;-87
2023/08/03 03:38:38;;;;;;;18.90;16.23;;;;;;;18.44;100.00;94705.88;4998351;28;20030;-87
2023/08/03 03:41:04;;;;;;;16.65;15.32;;;;;;;18.38;100.00;94701.53;5015794;28;20501;-89
2023/08/03 03:43:29;;;;;;;17.58;15.60;;;;;;;18.44;100.00;94713.75;5020952;28;20116;-85
2023/08/03 03:45:55;;;;;;;17.42;15.82;;;;;;;18.47;100.00;94698.59;5021156;28;20033;-87
2023/08/03 03:48:20;;;;;;;18.58;16.85;;;;;;;18.51;100.00;94689.28;5007981;28;20052;-86
2023/08/03 03:50:46;;;;;;;18.65;17.20;;;;;;;18.50;100.00;94701.59;5011882;28;20022;-85
2023/08/03 03:53:11;;;;;;;17.73;16.30;;;;;;;18.68;100.00;94683.16;5001619;28;20022;-88
2023/08/03 03:55:37;;;;;;;17.95;16.55;;;;;;;18.73;100.00;94685.09;5009238;28;20034;-96
2023/08/03 03:58:02;;;;;;;20.90;18.92;;;;;;;18.85;100.00;94678.00;5010797;28;20415;-89
2023/08/03 04:00:28;;;;;;;19.58;17.80;;;;;;;19.23;100.00;94652.06;5020522;28;20041;-89
2023/08/03 04:02:54;;;;;;;16.98;15.65;;;;;;;19.37;100.00;94593.00;5019155;28;20040;-89
2023/08/03 04:05:20;;;;;;;15.77;14.60;;;;;;;19.53;100.00;94580.16;5021561;28;20295;-90
2023/08/03 04:07:45;;;;;;;19.48;18.05;;;;;;;19.72;100.00;94578.94;5017698;28;20120;-89
2023/08/03 04:10:10;;;;;;;19.38;17.67;;;;;;;20.25;100.00;94542.50;4996784;28;20017;-89
2023/08/03 04:12:36;;;;;;;16.27;15.07;;;;;;;21.20;100.00;94465.84;5007116;28;20389;-90
2023/08/03 04:15:02;;;;;;;17.77;16.27;;;;;;;21.24;100.00;94430.06;5012926;28;20026;-91
2023/08/03 04:17:27;;;;;;;17.52;16.23;;;;;;;20.88;100.00;94457.81;5007568;28;20676;-89
2023/08/03 04:19:53;;;;;;;15.75;14.65;;;;;;;20.69;100.00;94484.69;5022383;28;20546;-90
2023/08/03 04:22:18;;;;;;;15.98;14.65;;;;;;;21.45;100.00;94462.63;5022090;28;20025;-87
2023/08/03 04:24:44;;;;;;;14.30;13.15;;;;;;;22.96;100.00;94410.81;5026193;28;20120;-89
2023/08/03 04:27:09;;;;;;;12.57;11.77;;;;;;;23.97;100.00;94375.72;5006114;28;20040;-88
2023/08/03 04:29:35;;;;;;;12.52;11.73;;;;;;;23.79;100.00;94376.28;5020100;28;20784;-88
2023/08/03 04:32:00;;;;;;;12.57;11.68;;;;;;;24.23;100.00;94377.28;5013489;28;20029;-87
2023/08/03 04:34:26;;;;;;;11.27;10.57;;;;;;;24.21;100.00;94371.44;5011147;28;20030;-87
2023/08/03 04:36:51;;;;;;;11.23;10.45;;;;;;;25.53;100.00;94367.06;5027400;28;20085;-88
2023/08/03 04:39:16;;;;;;;10.55;9.85;;;;;;;26.02;100.00;94372.19;5025346;28;20041;-86
2023/08/03 04:41:42;;;;;;;9.95;9.20;;;;;;;26.35;100.00;94375.06;5025424;28;20040;-87
2023/08/03 04:44:07;;;;;;;8.23;7.72;;;;;;;27.12;100.00;94368.53;5026131;28;20033;-87
2023/08/03 04:46:33;;;;;;;10.02;9.13;;;;;;;27.41;99.60;94379.03;5026337;28;20458;-87
2023/08/03 04:48:58;;;;;;;10.05;9.30;;;;;;;27.75;96.51;94369.69;5025074;28;20047;-89
2023/08/03 04:51:24;;;;;;;10.23;9.20;;;;;;;28.12;93.74;94376.81;5010991;28;20117;-87
2023/08/03 04:53:49;;;;;;;9.10;8.50;;;;;;;28.45;92.50;94376.75;5018601;28;20030;-86
2023/08/03 04:56:15;;;;;;;9.88;8.77;;;;;;;28.57;92.58;94377.84;5004164;28;21800;-85
2023/08/03 04:58:40;;;;;;;9.93;9.07;;;;;;;28.54;87.96;94373.09;5005430;28;20025;-88
2023/08/03 05:01:06;;;;;;;9.73;8.90;;;;;;;28.84;88.22;94373.56;5024852;28;20442;-87
2023/08/03 05:03:31;;;;;;;9.35;8.63;;;;;;;29.63;82.18;94369.41;5020735;28;20280;-89
2023/08/03 05:05:56;;;;;;;9.10;8.50;;;;;;;29.58;81.33;94375.66;5025313;28;20108;-87
2023/08/03 05:08:23;;;;;;;9.02;8.30;;;;;;;30.27;77.69;94376.09;5014831;28;20038;-87
2023/08/03 05:10:51;;;;;;;8.98;8.30;;;;;;;30.76;74.47;94370.47;5008091;28;20041;-86
2023/08/03 05:13:17;;;;;;;15.48;9.07;;;;;;;31.49;70.43;94376.88;5007131;28;20032;-86
2023/08/03 05:15:44;;;;;;;8.00;7.40;;;;;;;31.13;71.42;94382.53;5011834;28;20026;-85
2023/08/03 05:18:10;;;;;;;8.65;8.05;;;;;;;31.93;67.44;94385.69;5012091;28;20029;-88
2023/08/03 05:20:35;;;;;;;8.50;8.02;;;;;;;32.28;65.46;94389.88;5024609;28;20083;-88
2023/08/03 05:23:01;;;;;;;7.72;7.13;;;;;;;32.56;64.57;94385.66;5019973;28;20061;-88
2023/08/03 05:25:26;;;;;;;7.72;7.25;;;;;;;33.65;60.46;94396.47;5004692;28;20472;-87
2023/08/03 05:27:51;;;;;;;7.60;7.10;;;;;;;33.48;61.86;94391.97;5001396;28;20026;-88
2023/08/03 05:30:17;;;;;;;7.00;6.60;;;;;;;33.41;60.24;94394.41;5012850;28;20025;-87
2023/08/03 05:32:43;;;;;;;7.57;6.97;;;;;;;33.61;58.44;94398.22;5010063;28;20033;-87
2023/08/03 05:35:08;;;;;;;6.83;6.43;;;;;;;32.85;60.84;94395.66;5017059;28;20393;-87
2023/08/03 05:37:33;;;;;;;7.50;6.80;;;;;;;32.83;59.70;94398.69;5000273;28;20088;-90
2023/08/03 05:40:02;;;;;;;7.65;7.10;;;;;;;34.96;53.76;94392.84;5020935;28;20509;-88
2023/08/03 05:42:37;;;;;;;7.40;7.00;;;;;;;34.85;52.16;94397.88;5025384;28;20033;-88
2023/08/03 05:45:12;;;;;;;10.40;7.80;;;;;;;35.78;49.10;94399.56;4996559;28;20030;-88
2023/08/03 05:47:40;;;;;;;8.35;7.75;;;;;;;36.37;47.69;94405.03;5024424;28;20072;-88
2023/08/03 05:50:16;;;;;;;7.43;6.82;;;;;;;36.00;48.92;94400.91;5023837;28;20033;-88
2023/08/03 05:52:42;;;;;;;8.10;7.35;;;;;;;35.43;48.74;94402.78;5025587;28;20368;-89
2023/08/03 05:55:10;;;;;;;6.80;6.30;;;;;;;36.87;45.51;94399.75;5025167;28;20338;-87
2023/08/03 05:57:36;;;;;;;6.90;6.40;;;;;;;36.62;47.23;94398.38;5007471;28;20384;-87
2023/08/03 06:00:04;;;;;;;7.57;6.97;;;;;;;36.69;46.55;94403.16;5025292;28;20033;-87
2023/08/03 06:02:33;;;;;;;7.80;6.90;;;;;;;37.14;45.41;94402.72;5000458;28;20033;-89
2023/08/03 06:04:59;;;;;;;7.43;6.93;;;;;;;37.64;46.29;94404.59;5022388;28;20515;-88
2023/08/03 06:07:25;;;;;;;7.60;7.07;;;;;;;37.62;44.33;94404.16;5023878;28;20119;-89
2023/08/03 06:09:50;;;;;;;7.03;6.63;;;;;;;38.42;41.69;94412.34;5022884;28;20168;-89
2023/08/03 06:12:18;;;;;;;6.30;5.90;;;;;;;38.23;43.54;94409.66;5026370;28;20145;-89
2023/08/03 06:14:43;;;;;;;7.00;5.88;;;;;;;37.87;42.50;94408.16;5004507;28;20029;-92
2023/08/03 06:17:12;;;;;;;5.93;5.60;;;;;;;38.96;39.81;94393.94;5000631;28;20233;-88
2023/08/03 06:19:37;;;;;;;7.47;6.90;;;;;;;38.03;43.91;94406.19;5007052;28;20041;-90
2023/08/03 06:22:04;;;;;;;7.13;6.73;;;;;;;37.10;44.67;94402.63;5009623;28;20026;-88
2023/08/03 06:24:30;;;;;;;8.00;7.35;;;;;;;38.46;41.00;94405.88;5015760;28;20522;-95
2023/08/03 06:26:58;;;;;;;8.82;8.00;;;;;;;38.29;42.69;94410.91;5008845;28;20026;-90
2023/08/03 06:29:23;;;;;;;8.40;7.80;;;;;;;37.82;44.32;94401.13;5024771;28;20124;-92
2023/08/03 06:31:49;;;;;;;9.18;8.48;;;;;;;37.36;46.01;94399.34;5010348;28;20030;-91
2023/08/03 06:34:15;;;;;;;9.73;8.75;;;;;;;34.99;54.83;94397.53;5024477;28;20022;-94
2023/08/03 06:36:44;;;;;;;9.02;8.43;;;;;;;34.76;56.75;94398.00;5019473;28;20482;-89
2023/08/03 06:39:09;;;;;;;8.82;8.07;;;;;;;34.64;56.31;94389.13;5005802;28;20030;-89
2023/08/03 06:41:35;;;;;;;7.40;6.90;;;;;;;34.31;57.50;94400.72;5005308;28;20034;-91
2023/08/03 06:44:01;;;;;;;7.03;6.53;;;;;;;34.57;56.03;94402.34;5016728;28;20075;-90
2023/08/03 06:46:27;;;;;;;9.30;6.32;;;;;;;36.34;50.55;94408.44;5008875;28;20032;-89
2023/08/03 06:48:53;;;;;;;6.63;5.97;;;;;;;38.85;44.51;94411.19;5009692;28;20041;-88
2023/08/03 06:51:19;;;;;;;6.53;5.95;;;;;;;39.06;41.02;94408.00;5006503;28;20033;-91
2023/08/03 06:53:46;;;;;;;7.53;7.03;;;;;;;38.93;42.41;94402.00;5006941;28;20556;-91
2023/08/03 06:56:12;;;;;;;7.40;6.80;;;;;;;39.51;41.88;94397.06;5014313;28;20071;-88
2023/08/03 06:58:37;;;;;;;8.45;7.95;;;;;;;39.06;42.10;94413.44;5020327;28;20442;-89
2023/08/03 07:01:03;;;;;;;8.50;7.95;;;;;;;36.46;48.32;94405.66;5019918;28;20148;-90
2023/08/03 07:03:28;;;;;;;9.15;8.13;;;;;;;35.28;55.12;94403.50;5002767;28;20117;-87
2023/08/03 07:05:54;;;;;;;8.27;7.57;;;;;;;35.54;54.94;94405.00;5001801;28;20113;-91
2023/08/03 07:08:19;;;;;;;8.98;8.27;;;;;;;34.89;55.20;94402.28;5016910;28;20087;-87
2023/08/03 07:10:45;;;;;;;7.68;7.25;;;;;;;34.69;56.50;94399.69;5012425;28;20041;-86
2023/08/03 07:13:10;;;;;;;8.07;7.57;;;;;;;34.69;58.10;94397.78;4989020;28;20030;-90
2023/08/03 07:15:36;;;;;;;8.70;8.00;;;;;;;34.90;59.84;94398.44;5023179;28;20036;-88
2023/08/03 07:18:06;;;;;;;9.10;8.00;;;;;;;34.97;58.51;94399.81;5006020;28;20041;-91
2023/08/03 07:20:33;;;;;;;7.80;7.20;;;;;;;34.84;59.11;94401.69;5005886;28;20059;-92
2023/08/03 07:22:58;;;;;;;11.55;7.50;;;;;;;34.58;60.71;94412.75;5001200;28;20033;-90
2023/08/03 07:25:24;;;;;;;8.80;7.97;;;;;;;34.59;61.13;94406.25;5013534;28;20083;-89
2023/08/03 07:27:51;;;;;;;8.98;7.95;;;;;;;34.90;62.18;94406.50;5021617;28;20499;-90
2023/08/03 07:30:17;;;;;;;8.57;7.85;;;;;;;33.94;61.78;94409.00;4994185;28;20025;-87
2023/08/03 07:32:42;;;;;;;9.00;8.20;;;;;;;34.27;61.33;94383.69;5002245;28;20049;-84
2023/08/03 07:35:08;;;;;;;9.27;8.40;;;;;;;34.54;61.65;94395.72;5021636;28;20041;-87
2023/08/03 07:37:33;;;;;;;7.55;7.05;;;;;;;34.30;59.46;94395.66;5003349;28;20577;-82
2023/08/03 07:39:59;;;;;;;8.90;8.27;;;;;;;34.72;60.55;94391.72;5019200;28;20045;-85
2023/08/03 07:42:24;;;;;;;8.55;7.82;;;;;;;34.61;60.70;94387.13;5010414;28;20407;-85
2023/08/03 07:44:53;;;;;;;8.40;7.90;;;;;;;34.40;60.92;94384.47;5012741;28;20404;-85
2023/08/03 07:47:20;;;;;;;7.97;7.47;;;;;;;33.47;61.16;94387.72;5014430;28;20483;-83
2023/08/03 07:49:45;;;;;;;9.02;8.43;;;;;;;33.06;62.54;94385.75;5014436;28;20038;-84
2023/08/03 07:52:10;;;;;;;8.98;8.25;;;;;;;34.01;62.81;94375.06;5020118;28;20380;-84
2023/08/03 07:54:36;;;;;;;8.25;7.75;;;;;;;33.26;61.99;94386.94;5020059;28;20537;-85
2023/08/03 07:57:01;;;;;;;9.07;8.48;;;;;;;33.60;61.72;94373.25;5017362;28;20087;-86
2023/08/03 07:59:27;;;;;;;9.13;8.40;;;;;;;33.22;64.94;94377.94;5017702;28;20155;-85
2023/08/03 08:01:52;;;;;;;9.57;8.65;;;;;;;32.41;68.25;94372.00;5020434;28;20620;-87
2023/08/03 08:04:18;;;;;;;9.23;8.63;;;;;;;33.41;64.50;94378.28;4999552;28;20044;-84
2023/08/03 08:06:45;;;;;;;9.40;8.65;;;;;;;34.25;60.92;94363.63;4999377;28;20037;-85
2023/08/03 08:09:12;;;;;;;9.52;8.73;;;;;;;34.05;64.93;94370.59;5019659;28;20073;-87
2023/08/03 08:11:37;;;;;;;9.10;8.50;;;;;;;33.90;62.04;94369.34;5020918;28;20471;-88
2023/08/03 08:14:03;;;;;;;9.73;8.98;;;;;;;33.45;66.56;94359.59;5021364;28;20033;-85
2023/08/03 08:16:29;;;;;;;9.55;8.75;;;;;;;33.31;65.57;94363.34;5003503;28;20037;-87
2023/08/03 08:18:54;;;;;;;9.07;8.50;;;;;;;33.57;63.69;94363.13;5019695;28;20601;-85
2023/08/03 08:21:19;;;;;;;9.82;8.68;;;;;;;34.28;61.40;94352.97;5020494;28;20037;-91
2023/08/03 08:23:45;;;;;;;9.10;8.50;;;;;;;33.74;58.95;94357.63;5017216;28;20466;-87
2023/08/03 08:26:15;;;;;;;10.50;9.80;;;;;;;33.07;63.48;94357.81;4991371;28;21067;-87
2023/08/03 08:28:43;;;;;;;10.23;9.43;;;;;;;33.21;61.14;94352.19;4991861;28;20486;-93
2023/08/03 08:31:09;;;;;;;9.63;8.93;;;;;;;33.08;64.10;94355.88;5014353;28;20044;-88
2023/08/03 08:33:34;;;;;;;9.90;9.18;;;;;;;33.55;62.29;94348.44;5002635;28;20494;-87
2023/08/03 08:36:00;;;;;;;10.10;9.20;;;;;;;34.17;58.97;94345.66;5016732;28;20111;-87
2023/08/03 08:38:26;;;;;;;9.57;8.90;;;;;;;32.81;63.56;94344.56;5017915;28;20029;-86
2023/08/03 08:40:51;;;;;;;8.95;8.38;;;;;;;33.34;60.57;94345.78;5002443;28;20029;-84
2023/08/03 08:43:20;;;;;;;16.85;8.57;;;;;;;32.22;62.46;94348.25;5019721;28;20044;-84
2023/08/03 08:45:45;;;;;;;9.68;8.70;;;;;;;32.56;60.67;94342.75;5013789;28;20030;-89
2023/08/03 08:48:11;;;;;;;11.32;10.23;;;;;;;34.01;59.82;94336.63;4997157;28;20095;-82
2023/08/03 08:50:36;;;;;;;9.95;9.18;;;;;;;33.97;57.90;94333.03;5014605;28;20094;-88
2023/08/03 08:53:02;;;;;;;10.60;9.77;;;;;;;32.99;60.68;94326.41;5000341;28;20068;-85
2023/08/03 08:55:29;;;;;;;10.38;9.55;;;;;;;32.63;61.08;94343.06;5002697;28;20034;-88
2023/08/03 08:57:56;;;;;;;11.10;10.20;;;;;;;33.88;59.79;94339.28;4995295;28;20071;-81
2023/08/03 09:00:24;;;;;;;9.00;8.40;;;;;;;32.79;61.45;94335.22;5017189;28;20454;-85
2023/08/03 09:02:56;;;;;;;11.02;9.88;;;;;;;33.40;59.46;94337.19;4993224;28;20974;-85
2023/08/03 09:05:25;;;;;;;89.38;43.58;;;;;;;33.66;62.22;94334.28;5002182;28;20037;-86
2023/08/03 09:08:16;;;;;;;78.50;35.95;;;;;;;33.70;61.53;94337.91;5015701;28;20537;-80
2023/08/03 09:10:53;;;;;;;52.42;30.75;;;;;;;34.02;54.58;94327.44;5027230;28;20540;-82
2023/08/03 09:13:28;;;;;;;47.28;29.80;;;;;;;33.85;54.79;94334.56;5013744;28;20499;-81
2023/08/03 09:15:54;;;;;;;20.15;15.20;;;;;;;33.91;58.43;94327.88;5015422;28;20067;-81
2023/08/03 09:18:21;;;;;;;10.02;9.13;;;;;;;33.68;57.08;94333.97;5004815;28;20021;-84
2023/08/03 09:20:46;;;;;;;13.75;12.52;;;;;;;34.16;56.01;94322.56;5016332;28;20042;-82
2023/08/03 09:23:27;;;;;;;9.32;8.65;;;;;;;33.87;56.26;94326.97;5002469;28;20046;-82
2023/08/03 09:25:52;;;;;;;8.65;8.07;;;;;;;33.76;56.33;94331.19;5017809;28;20034;-80
2023/08/03 09:28:18;;;;;;;8.57;7.85;;;;;;;32.86;60.50;94336.28;5017773;28;20037;-85
2023/08/03 09:30:50;;;;;;;9.50;8.60;;;;;;;33.65;56.31;94329.25;5025104;28;20033;-81
2023/08/03 09:33:15;;;;;;;10.07;8.77;;;;;;;33.47;56.15;94325.13;5013947;28;20139;-82
2023/08/03 09:35:41;;;;;;;9.20;8.40;;;;;;;33.98;56.74;94319.25;5018770;28;20105;-83
2023/08/03 09:38:22;;;;;;;8.85;8.35;;;;;;;34.09;56.88;94316.94;5011771;28;20061;-81
2023/08/03 09:40:49;;;;;;;9.30;8.77;;;;;;;33.82;56.74;94313.72;5007269;28;20547;-83
2023/08/03 09:43:16;;;;;;;9.67;8.97;;;;;;;33.53;57.31;94311.16;5019944;28;20694;-83
2023/08/03 09:45:42;;;;;;;9.77;9.18;;;;;;;33.54;60.31;94301.97;5013084;28;20037;-85
2023/08/03 09:48:09;;;;;;;8.50;7.90;;;;;;;33.76;59.42;94303.53;5014412;28;20103;-81
2023/08/03 09:50:35;;;;;;;9.07;8.48;;;;;;;34.48;57.00;94294.00;5014249;28;20202;-82
2023/08/03 09:53:02;;;;;;;10.13;9.43;;;;;;;33.97;57.56;94304.25;5011374;28;20124;-86
2023/08/03 09:55:31;;;;;;;8.82;8.23;;;;;;;33.99;56.05;94295.84;4998780;28;20028;-81
2023/08/03 09:58:09;;;;;;;9.10;8.55;;;;;;;34.46;56.01;94291.63;5011027;28;20042;-82
2023/08/03 10:00:34;;;;;;;9.03;8.47;;;;;;;34.11;54.50;94295.88;5007745;28;20160;-80
2023/08/03 10:03:09;;;;;;;8.73;8.07;;;;;;;32.81;59.28;94296.22;5012368;28;20124;-81
2023/08/03 10:05:39;;;;;;;9.07;8.45;;;;;;;33.60;57.32;94287.25;5007683;28;20901;-85
2023/08/03 10:08:09;;;;;;;8.40;7.60;;;;;;;32.79;57.35;94287.69;5008308;28;20041;-82
2023/08/03 10:10:38;;;;;;;11.32;8.82;;;;;;;33.74;57.16;94287.75;5017606;28;20036;-82
2023/08/03 10:13:06;;;;;;;;;;;;;;;33.63;55.13;94283.88;5022046;28;20403;-82
2023/08/03 10:15:32;;;;;;;8.73;8.02;;;;;;;34.17;57.24;94270.34;5013726;28;20418;-87
2023/08/03 10:17:58;;;;;;;8.10;7.40;;;;;;;32.99;57.53;94264.66;4999439;28;20025;-81
2023/08/03 10:20:24;;;;;;;9.13;8.40;;;;;;;33.04;59.02;94277.13;5015285;28;20109;-84
2023/08/03 10:23:08;;;;;;;9.02;8.02;;;;;;;33.77;56.09;94270.16;5014165;28;20045;-83
2023/08/03 10:25:59;;;;;;;8.88;8.27;;;;;;;34.18;52.98;94266.53;5017717;28;20103;-82
2023/08/03 10:28:25;;;;;;;8.05;7.32;;;;;;;34.30;52.82;94263.84;5016494;28;20068;-83
2023/08/03 10:31:16;;;;;;;6.72;6.32;;;;;;;33.74;46.24;94268.13;5004316;28;20449;-87
2023/08/03 10:33:51;;;;;;;6.95;6.55;;;;;;;34.03;47.35;94272.53;5018767;28;20521;-83
2023/08/03 10:38:58;;;;;;;8.18;7.50;;;;;;;33.67;51.38;94257.94;5018664;28;20493;-85
2023/08/03 10:41:29;;;;;;;8.50;7.90;;;;;;;33.88;50.68;94255.94;5017012;28;20026;-83
2023/08/03 10:44:23;;;;;;;7.65;6.97;;;;;;;34.32;49.96;94251.63;5019842;28;20025;-84
2023/08/03 10:46:54;;;;;;;7.97;7.30;;;;;;;34.33;46.70;94253.19;4995261;28;20054;-85
2023/08/03 10:49:19;;;;;;;7.38;6.75;;;;;;;33.81;48.49;94254.94;5013386;28;20128;-82
2023/08/03 10:51:45;;;;;;;7.70;7.10;;;;;;;33.75;48.03;94248.19;5014683;28;20056;-81
2023/08/03 10:54:11;;;;;;;7.70;7.10;;;;;;;33.92;48.62;94253.38;5016462;28;20047;-83
2023/08/03 10:56:36;;;;;;;7.50;7.00;;;;;;;34.45;49.21;94247.03;5010926;28;20030;-83
2023/08/03 10:59:03;;;;;;;8.50;7.97;;;;;;;34.52;47.83;94244.53;5016562;28;20191;-84
2023/08/03 11:01:29;;;;;;;8.00;7.60;;;;;;;34.60;47.84;94242.84;4998119;28;20025;-84
2023/08/03 11:03:54;;;;;;;7.95;7.30;;;;;;;34.73;47.94;94245.22;4997808;28;20770;-81
2023/08/03 11:06:20;;;;;;;7.43;6.97;;;;;;;34.74;45.44;94236.00;5001040;28;20041;-81
2023/08/03 11:08:46;;;;;;;7.60;7.07;;;;;;;34.03;45.91;94238.38;5008393;28;20037;-90
2023/08/03 11:11:12;;;;;;;7.03;6.55;;;;;;;34.31;45.75;94231.22;5027986;28;20639;-85
2023/08/03 11:13:39;;;;;;;7.78;7.28;;;;;;;34.18;47.00;94235.03;5021066;28;20064;-83
2023/08/03 11:16:05;;;;;;;8.23;7.38;;;;;;;34.11;45.15;94228.63;5018842;28;20036;-85
2023/08/03 11:18:33;;;;;;;8.30;7.78;;;;;;;34.69;46.66;94232.75;5013318;28;20059;-85
2023/08/03 11:20:59;;;;;;;;;;;;;;;34.18;46.21;94226.19;5025609;28;20511;-92
2023/08/03 11:23:29;;;;;;;7.95;7.25;;;;;;;34.63;46.33;94224.16;5018700;28;19916;-83